sensor_id;sensor_type;location;lat;lon;timestamp;P1;durP1;ratioP1;P2;durP2;ratioP2
14276;SDS011;7222;57.346;12.150;2023-06-22T00:01:32;5.30;;;4.80;;
14276;SDS011;7222;57.346;12.150;2023-06-22T00:04:00;9.37;;;5.90;;
14276;SDS011;7222;57.346;12.150;2023-06-22T00:06:27;8.33;;;5.73;;
14276;SDS011;7222;57.346;12.150;2023-06-22T00:08:54;8.20;;;5.50;;
14276;SDS011;7222;57.346;12.150;2023-06-22T00:11:23;7.80;;;5.83;;
14276;SDS011;7222;57.346;12.150;2023-06-22T00:13:50;7.80;;;5.83;;
14276;SDS011;7222;57.346;12.150;2023-06-22T00:16:17;8.43;;;5.33;;
14276;SDS011;7222;57.346;12.150;2023-06-22T00:18:44;7.07;;;5.63;;
14276;SDS011;7222;57.346;12.150;2023-06-22T00:21:12;5.63;;;4.60;;
14276;SDS011;7222;57.346;12.150;2023-06-22T00:23:39;9.10;;;6.13;;
14276;SDS011;7222;57.346;12.150;2023-06-22T00:26:06;8.83;;;5.30;;
14276;SDS011;7222;57.346;12.150;2023-06-22T00:28:35;11.00;;;5.93;;
14276;SDS011;7222;57.346;12.150;2023-06-22T00:31:02;7.30;;;5.63;;
14276;SDS011;7222;57.346;12.150;2023-06-22T00:33:29;7.57;;;5.80;;
14276;SDS011;7222;57.346;12.150;2023-06-22T00:35:56;10.47;;;6.60;;
14276;SDS011;7222;57.346;12.150;2023-06-22T00:38:24;11.80;;;7.13;;
14276;SDS011;7222;57.346;12.150;2023-06-22T00:40:51;11.80;;;6.60;;
14276;SDS011;7222;57.346;12.150;2023-06-22T00:43:18;8.73;;;5.53;;
14276;SDS011;7222;57.346;12.150;2023-06-22T00:45:46;13.60;;;6.40;;
14276;SDS011;7222;57.346;12.150;2023-06-22T00:48:14;12.50;;;7.30;;
14276;SDS011;7222;57.346;12.150;2023-06-22T00:50:41;11.80;;;7.67;;
14276;SDS011;7222;57.346;12.150;2023-06-22T00:53:09;9.53;;;6.07;;
14276;SDS011;7222;57.346;12.150;2023-06-22T00:55:37;10.67;;;7.00;;
14276;SDS011;7222;57.346;12.150;2023-06-22T00:58:05;10.87;;;6.67;;
14276;SDS011;7222;57.346;12.150;2023-06-22T01:00:33;9.17;;;6.20;;
14276;SDS011;7222;57.346;12.150;2023-06-22T01:03:02;9.53;;;6.23;;
14276;SDS011;7222;57.346;12.150;2023-06-22T01:05:29;8.77;;;5.80;;
14276;SDS011;7222;57.346;12.150;2023-06-22T01:08:02;9.13;;;6.37;;
14276;SDS011;7222;57.346;12.150;2023-06-22T01:10:36;10.33;;;6.20;;
14276;SDS011;7222;57.346;12.150;2023-06-22T01:13:11;9.80;;;6.40;;
14276;SDS011;7222;57.346;12.150;2023-06-22T01:15:45;9.17;;;6.07;;
14276;SDS011;7222;57.346;12.150;2023-06-22T01:18:18;8.17;;;6.50;;
14276;SDS011;7222;57.346;12.150;2023-06-22T01:20:51;14.20;;;6.40;;
14276;SDS011;7222;57.346;12.150;2023-06-22T01:23:22;10.70;;;6.27;;
14276;SDS011;7222;57.346;12.150;2023-06-22T01:26:02;12.70;;;6.30;;
14276;SDS011;7222;57.346;12.150;2023-06-22T01:28:49;8.40;;;5.77;;
14276;SDS011;7222;57.346;12.150;2023-06-22T01:31:19;10.73;;;6.07;;
14276;SDS011;7222;57.346;12.150;2023-06-22T01:33:50;10.00;;;6.50;;
14276;SDS011;7222;57.346;12.150;2023-06-22T01:36:19;7.90;;;5.63;;
14276;SDS011;7222;57.346;12.150;2023-06-22T01:38:48;7.00;;;5.77;;
14276;SDS011;7222;57.346;12.150;2023-06-22T01:41:16;8.40;;;5.50;;
14276;SDS011;7222;57.346;12.150;2023-06-22T01:43:46;9.10;;;6.30;;
14276;SDS011;7222;57.346;12.150;2023-06-22T01:46:14;8.90;;;6.10;;
14276;SDS011;7222;57.346;12.150;2023-06-22T01:48:44;10.67;;;6.10;;
14276;SDS011;7222;57.346;12.150;2023-06-22T01:51:12;8.67;;;5.93;;
14276;SDS011;7222;57.346;12.150;2023-06-22T01:53:40;9.43;;;6.13;;
14276;SDS011;7222;57.346;12.150;2023-06-22T01:56:07;10.87;;;5.77;;
14276;SDS011;7222;57.346;12.150;2023-06-22T01:58:35;11.03;;;5.63;;
14276;SDS011;7222;57.346;12.150;2023-06-22T02:01:10;11.87;;;6.47;;
14276;SDS011;7222;57.346;12.150;2023-06-22T02:03:38;10.30;;;5.70;;
14276;SDS011;7222;57.346;12.150;2023-06-22T02:06:10;8.33;;;6.23;;
14276;SDS011;7222;57.346;12.150;2023-06-22T02:08:46;10.50;;;5.43;;
14276;SDS011;7222;57.346;12.150;2023-06-22T02:11:16;9.20;;;6.47;;
14276;SDS011;7222;57.346;12.150;2023-06-22T02:13:46;10.80;;;6.07;;
14276;SDS011;7222;57.346;12.150;2023-06-22T02:16:16;9.43;;;5.60;;
14276;SDS011;7222;57.346;12.150;2023-06-22T02:18:46;10.13;;;6.30;;
14276;SDS011;7222;57.346;12.150;2023-06-22T02:21:16;11.00;;;6.00;;
14276;SDS011;7222;57.346;12.150;2023-06-22T02:23:43;9.73;;;5.40;;
14276;SDS011;7222;57.346;12.150;2023-06-22T02:26:10;10.50;;;5.50;;
14276;SDS011;7222;57.346;12.150;2023-06-22T02:28:37;9.07;;;6.00;;
14276;SDS011;7222;57.346;12.150;2023-06-22T02:31:04;10.93;;;6.17;;
14276;SDS011;7222;57.346;12.150;2023-06-22T02:33:33;9.60;;;6.00;;
14276;SDS011;7222;57.346;12.150;2023-06-22T02:36:00;10.30;;;5.67;;
14276;SDS011;7222;57.346;12.150;2023-06-22T02:38:30;12.77;;;6.47;;
14276;SDS011;7222;57.346;12.150;2023-06-22T02:40:58;9.23;;;5.77;;
14276;SDS011;7222;57.346;12.150;2023-06-22T02:43:25;9.30;;;6.83;;
14276;SDS011;7222;57.346;12.150;2023-06-22T02:45:52;12.00;;;6.03;;
14276;SDS011;7222;57.346;12.150;2023-06-22T02:48:19;8.63;;;6.00;;
14276;SDS011;7222;57.346;12.150;2023-06-22T02:50:48;10.20;;;6.47;;
14276;SDS011;7222;57.346;12.150;2023-06-22T02:53:15;11.53;;;6.07;;
14276;SDS011;7222;57.346;12.150;2023-06-22T02:55:43;6.20;;;5.57;;
14276;SDS011;7222;57.346;12.150;2023-06-22T02:58:10;10.77;;;6.83;;
14276;SDS011;7222;57.346;12.150;2023-06-22T03:00:37;8.90;;;5.50;;
14276;SDS011;7222;57.346;12.150;2023-06-22T03:03:04;6.70;;;6.00;;
14276;SDS011;7222;57.346;12.150;2023-06-22T03:05:31;8.30;;;5.63;;
14276;SDS011;7222;57.346;12.150;2023-06-22T03:08:01;8.50;;;5.90;;
14276;SDS011;7222;57.346;12.150;2023-06-22T03:10:29;10.57;;;6.10;;
14276;SDS011;7222;57.346;12.150;2023-06-22T03:12:56;10.37;;;6.57;;
14276;SDS011;7222;57.346;12.150;2023-06-22T03:15:23;9.43;;;5.80;;
14276;SDS011;7222;57.346;12.150;2023-06-22T03:17:50;10.63;;;6.40;;
14276;SDS011;7222;57.346;12.150;2023-06-22T03:20:17;10.90;;;6.50;;
14276;SDS011;7222;57.346;12.150;2023-06-22T03:22:44;10.07;;;6.03;;
14276;SDS011;7222;57.346;12.150;2023-06-22T03:25:15;10.30;;;5.47;;
14276;SDS011;7222;57.346;12.150;2023-06-22T03:27:42;7.60;;;4.90;;
14276;SDS011;7222;57.346;12.150;2023-06-22T03:30:10;9.20;;;5.73;;
14276;SDS011;7222;57.346;12.150;2023-06-22T03:32:38;8.03;;;5.30;;
14276;SDS011;7222;57.346;12.150;2023-06-22T03:35:06;10.87;;;6.17;;
14276;SDS011;7222;57.346;12.150;2023-06-22T03:37:33;8.90;;;5.47;;
14276;SDS011;7222;57.346;12.150;2023-06-22T03:40:00;7.80;;;5.67;;
14276;SDS011;7222;57.346;12.150;2023-06-22T03:42:29;13.43;;;5.50;;
14276;SDS011;7222;57.346;12.150;2023-06-22T03:44:57;9.27;;;5.17;;
14276;SDS011;7222;57.346;12.150;2023-06-22T03:47:26;7.43;;;5.27;;
14276;SDS011;7222;57.346;12.150;2023-06-22T03:49:53;9.93;;;5.80;;
14276;SDS011;7222;57.346;12.150;2023-06-22T03:52:20;6.20;;;5.60;;
14276;SDS011;7222;57.346;12.150;2023-06-22T03:54:47;9.63;;;5.33;;
14276;SDS011;7222;57.346;12.150;2023-06-22T03:57:14;12.97;;;6.50;;
14276;SDS011;7222;57.346;12.150;2023-06-22T03:59:43;11.00;;;5.93;;
14276;SDS011;7222;57.346;12.150;2023-06-22T04:02:10;9.50;;;5.37;;
14276;SDS011;7222;57.346;12.150;2023-06-22T04:04:37;8.53;;;6.10;;
14276;SDS011;7222;57.346;12.150;2023-06-22T04:07:04;12.27;;;6.93;;
14276;SDS011;7222;57.346;12.150;2023-06-22T04:09:32;10.87;;;6.60;;
14276;SDS011;7222;57.346;12.150;2023-06-22T04:12:00;7.97;;;5.40;;
14276;SDS011;7222;57.346;12.150;2023-06-22T04:14:28;8.73;;;5.77;;
14276;SDS011;7222;57.346;12.150;2023-06-22T04:16:57;8.63;;;6.00;;
14276;SDS011;7222;57.346;12.150;2023-06-22T04:19:24;10.40;;;6.60;;
14276;SDS011;7222;57.346;12.150;2023-06-22T04:21:51;7.67;;;6.13;;
14276;SDS011;7222;57.346;12.150;2023-06-22T04:24:27;10.83;;;6.90;;
14276;SDS011;7222;57.346;12.150;2023-06-22T04:26:54;8.13;;;5.80;;
14276;SDS011;7222;57.346;12.150;2023-06-22T04:29:21;10.97;;;6.30;;
14276;SDS011;7222;57.346;12.150;2023-06-22T04:31:53;10.30;;;5.93;;
14276;SDS011;7222;57.346;12.150;2023-06-22T04:34:24;9.93;;;4.60;;
14276;SDS011;7222;57.346;12.150;2023-06-22T04:36:53;11.47;;;7.07;;
14276;SDS011;7222;57.346;12.150;2023-06-22T04:39:20;8.90;;;6.37;;
14276;SDS011;7222;57.346;12.150;2023-06-22T04:41:47;10.83;;;6.80;;
14276;SDS011;7222;57.346;12.150;2023-06-22T04:44:14;8.93;;;6.00;;
14276;SDS011;7222;57.346;12.150;2023-06-22T04:46:49;7.03;;;4.83;;
14276;SDS011;7222;57.346;12.150;2023-06-22T04:49:26;6.87;;;3.77;;
14276;SDS011;7222;57.346;12.150;2023-06-22T04:51:58;9.57;;;5.70;;
14276;SDS011;7222;57.346;12.150;2023-06-22T04:54:26;9.53;;;5.53;;
14276;SDS011;7222;57.346;12.150;2023-06-22T04:56:53;9.13;;;5.53;;
14276;SDS011;7222;57.346;12.150;2023-06-22T04:59:22;9.97;;;5.97;;
14276;SDS011;7222;57.346;12.150;2023-06-22T05:01:53;8.13;;;6.10;;
14276;SDS011;7222;57.346;12.150;2023-06-22T05:04:21;6.00;;;5.07;;
14276;SDS011;7222;57.346;12.150;2023-06-22T05:06:51;8.40;;;5.50;;
14276;SDS011;7222;57.346;12.150;2023-06-22T05:09:18;8.70;;;5.23;;
14276;SDS011;7222;57.346;12.150;2023-06-22T05:11:45;8.37;;;5.13;;
14276;SDS011;7222;57.346;12.150;2023-06-22T05:14:13;8.23;;;5.33;;
14276;SDS011;7222;57.346;12.150;2023-06-22T05:16:40;9.77;;;5.10;;
14276;SDS011;7222;57.346;12.150;2023-06-22T05:19:08;7.97;;;5.73;;
14276;SDS011;7222;57.346;12.150;2023-06-22T05:21:36;6.77;;;4.77;;
14276;SDS011;7222;57.346;12.150;2023-06-22T05:24:05;6.53;;;5.67;;
14276;SDS011;7222;57.346;12.150;2023-06-22T05:26:33;9.13;;;6.10;;
14276;SDS011;7222;57.346;12.150;2023-06-22T05:29:01;7.00;;;5.27;;
14276;SDS011;7222;57.346;12.150;2023-06-22T05:31:29;6.23;;;5.00;;
14276;SDS011;7222;57.346;12.150;2023-06-22T05:33:56;7.03;;;4.77;;
14276;SDS011;7222;57.346;12.150;2023-06-22T05:36:24;7.03;;;5.03;;
14276;SDS011;7222;57.346;12.150;2023-06-22T05:38:52;8.63;;;6.10;;
14276;SDS011;7222;57.346;12.150;2023-06-22T05:41:20;8.93;;;5.10;;
14276;SDS011;7222;57.346;12.150;2023-06-22T05:43:48;6.73;;;4.90;;
14276;SDS011;7222;57.346;12.150;2023-06-22T05:46:15;7.43;;;5.40;;
14276;SDS011;7222;57.346;12.150;2023-06-22T05:48:43;10.30;;;5.20;;
14276;SDS011;7222;57.346;12.150;2023-06-22T05:51:10;7.93;;;5.67;;
14276;SDS011;7222;57.346;12.150;2023-06-22T05:53:37;8.00;;;5.80;;
14276;SDS011;7222;57.346;12.150;2023-06-22T05:56:04;7.40;;;5.37;;
14276;SDS011;7222;57.346;12.150;2023-06-22T05:58:35;12.67;;;5.90;;
14276;SDS011;7222;57.346;12.150;2023-06-22T06:01:02;8.43;;;5.90;;
14276;SDS011;7222;57.346;12.150;2023-06-22T06:03:29;7.87;;;5.20;;
14276;SDS011;7222;57.346;12.150;2023-06-22T06:05:55;7.80;;;5.50;;
14276;SDS011;7222;57.346;12.150;2023-06-22T06:08:22;8.07;;;5.50;;
14276;SDS011;7222;57.346;12.150;2023-06-22T06:10:49;6.93;;;4.63;;
14276;SDS011;7222;57.346;12.150;2023-06-22T06:13:18;10.60;;;5.60;;
14276;SDS011;7222;57.346;12.150;2023-06-22T06:15:46;9.33;;;6.23;;
14276;SDS011;7222;57.346;12.150;2023-06-22T06:18:16;11.00;;;6.47;;
14276;SDS011;7222;57.346;12.150;2023-06-22T06:20:43;8.83;;;5.67;;
14276;SDS011;7222;57.346;12.150;2023-06-22T06:23:10;10.97;;;5.87;;
14276;SDS011;7222;57.346;12.150;2023-06-22T06:25:37;9.93;;;5.83;;
14276;SDS011;7222;57.346;12.150;2023-06-22T06:28:05;7.17;;;5.63;;
14276;SDS011;7222;57.346;12.150;2023-06-22T06:30:32;9.27;;;5.33;;
14276;SDS011;7222;57.346;12.150;2023-06-22T06:33:01;9.37;;;5.57;;
14276;SDS011;7222;57.346;12.150;2023-06-22T06:35:29;7.07;;;5.33;;
14276;SDS011;7222;57.346;12.150;2023-06-22T06:37:57;13.50;;;5.60;;
14276;SDS011;7222;57.346;12.150;2023-06-22T06:40:24;7.97;;;6.30;;
14276;SDS011;7222;57.346;12.150;2023-06-22T06:42:51;10.23;;;4.90;;
14276;SDS011;7222;57.346;12.150;2023-06-22T06:45:19;6.90;;;4.77;;
14276;SDS011;7222;57.346;12.150;2023-06-22T06:47:48;8.07;;;4.80;;
14276;SDS011;7222;57.346;12.150;2023-06-22T06:50:17;6.40;;;5.40;;
14276;SDS011;7222;57.346;12.150;2023-06-22T06:52:44;5.93;;;5.00;;
14276;SDS011;7222;57.346;12.150;2023-06-22T06:55:12;5.47;;;4.17;;
14276;SDS011;7222;57.346;12.150;2023-06-22T06:57:39;6.80;;;5.00;;
14276;SDS011;7222;57.346;12.150;2023-06-22T07:00:07;9.73;;;5.67;;
14276;SDS011;7222;57.346;12.150;2023-06-22T07:02:37;11.73;;;5.07;;
14276;SDS011;7222;57.346;12.150;2023-06-22T07:05:05;8.37;;;6.00;;
14276;SDS011;7222;57.346;12.150;2023-06-22T07:07:34;9.83;;;5.40;;
14276;SDS011;7222;57.346;12.150;2023-06-22T07:10:02;8.17;;;4.50;;
14276;SDS011;7222;57.346;12.150;2023-06-22T07:12:30;6.60;;;5.37;;
14276;SDS011;7222;57.346;12.150;2023-06-22T07:15:00;7.20;;;5.07;;
14276;SDS011;7222;57.346;12.150;2023-06-22T07:17:29;5.83;;;5.00;;
14276;SDS011;7222;57.346;12.150;2023-06-22T07:19:56;5.87;;;5.27;;
14276;SDS011;7222;57.346;12.150;2023-06-22T07:22:23;7.67;;;5.23;;
14276;SDS011;7222;57.346;12.150;2023-06-22T07:24:52;8.87;;;5.50;;
14276;SDS011;7222;57.346;12.150;2023-06-22T07:27:19;7.73;;;5.40;;
14276;SDS011;7222;57.346;12.150;2023-06-22T07:29:46;7.07;;;4.60;;
14276;SDS011;7222;57.346;12.150;2023-06-22T07:32:13;9.70;;;5.50;;
14276;SDS011;7222;57.346;12.150;2023-06-22T07:34:43;9.43;;;6.10;;
14276;SDS011;7222;57.346;12.150;2023-06-22T07:37:10;7.10;;;5.20;;
14276;SDS011;7222;57.346;12.150;2023-06-22T07:39:37;7.43;;;4.97;;
14276;SDS011;7222;57.346;12.150;2023-06-22T07:42:06;6.07;;;5.47;;
14276;SDS011;7222;57.346;12.150;2023-06-22T07:44:34;6.37;;;4.17;;
14276;SDS011;7222;57.346;12.150;2023-06-22T07:47:01;9.93;;;5.40;;
14276;SDS011;7222;57.346;12.150;2023-06-22T07:49:28;9.07;;;5.27;;
14276;SDS011;7222;57.346;12.150;2023-06-22T07:51:55;6.30;;;4.87;;
14276;SDS011;7222;57.346;12.150;2023-06-22T07:54:23;7.03;;;5.33;;
14276;SDS011;7222;57.346;12.150;2023-06-22T07:56:50;6.67;;;4.70;;
14276;SDS011;7222;57.346;12.150;2023-06-22T07:59:19;6.30;;;5.07;;
14276;SDS011;7222;57.346;12.150;2023-06-22T08:01:46;7.00;;;5.47;;
14276;SDS011;7222;57.346;12.150;2023-06-22T08:04:14;8.40;;;5.90;;
14276;SDS011;7222;57.346;12.150;2023-06-22T08:06:41;7.73;;;5.27;;
14276;SDS011;7222;57.346;12.150;2023-06-22T08:09:08;8.23;;;4.83;;
14276;SDS011;7222;57.346;12.150;2023-06-22T08:11:35;8.17;;;4.87;;
14276;SDS011;7222;57.346;12.150;2023-06-22T08:14:02;8.33;;;4.87;;
14276;SDS011;7222;57.346;12.150;2023-06-22T08:16:31;4.17;;;3.23;;
14276;SDS011;7222;57.346;12.150;2023-06-22T08:18:58;8.53;;;5.23;;
14276;SDS011;7222;57.346;12.150;2023-06-22T08:21:25;8.77;;;5.30;;
14276;SDS011;7222;57.346;12.150;2023-06-22T08:23:51;8.13;;;4.70;;
14276;SDS011;7222;57.346;12.150;2023-06-22T08:26:18;9.17;;;5.00;;
14276;SDS011;7222;57.346;12.150;2023-06-22T08:28:46;6.10;;;4.90;;
14276;SDS011;7222;57.346;12.150;2023-06-22T08:31:12;6.53;;;5.83;;
14276;SDS011;7222;57.346;12.150;2023-06-22T08:33:41;7.27;;;5.93;;
14276;SDS011;7222;57.346;12.150;2023-06-22T08:36:10;12.50;;;6.77;;
14276;SDS011;7222;57.346;12.150;2023-06-22T08:38:38;8.40;;;5.70;;
14276;SDS011;7222;57.346;12.150;2023-06-22T08:41:05;6.77;;;5.73;;
14276;SDS011;7222;57.346;12.150;2023-06-22T08:43:32;8.13;;;5.37;;
14276;SDS011;7222;57.346;12.150;2023-06-22T08:45:59;6.00;;;5.40;;
14276;SDS011;7222;57.346;12.150;2023-06-22T08:48:27;6.47;;;4.83;;
14276;SDS011;7222;57.346;12.150;2023-06-22T08:50:57;6.87;;;5.40;;
14276;SDS011;7222;57.346;12.150;2023-06-22T08:53:23;7.13;;;5.83;;
14276;SDS011;7222;57.346;12.150;2023-06-22T08:55:50;8.27;;;5.83;;
14276;SDS011;7222;57.346;12.150;2023-06-22T08:58:17;7.60;;;6.37;;
14276;SDS011;7222;57.346;12.150;2023-06-22T09:00:45;8.17;;;6.10;;
14276;SDS011;7222;57.346;12.150;2023-06-22T09:03:12;7.17;;;5.57;;
14276;SDS011;7222;57.346;12.150;2023-06-22T09:05:40;8.30;;;6.37;;
14276;SDS011;7222;57.346;12.150;2023-06-22T09:08:08;9.13;;;5.57;;
14276;SDS011;7222;57.346;12.150;2023-06-22T09:10:35;6.73;;;5.90;;
14276;SDS011;7222;57.346;12.150;2023-06-22T09:13:01;6.93;;;6.23;;
14276;SDS011;7222;57.346;12.150;2023-06-22T09:15:28;8.93;;;6.03;;
14276;SDS011;7222;57.346;12.150;2023-06-22T09:17:55;8.07;;;5.63;;
14276;SDS011;7222;57.346;12.150;2023-06-22T09:20:22;11.90;;;5.67;;
14276;SDS011;7222;57.346;12.150;2023-06-22T09:22:49;9.33;;;5.47;;
14276;SDS011;7222;57.346;12.150;2023-06-22T09:25:17;10.13;;;6.43;;
14276;SDS011;7222;57.346;12.150;2023-06-22T09:27:45;12.50;;;7.10;;
14276;SDS011;7222;57.346;12.150;2023-06-22T09:30:13;7.93;;;5.70;;
14276;SDS011;7222;57.346;12.150;2023-06-22T09:32:40;7.00;;;6.30;;
14276;SDS011;7222;57.346;12.150;2023-06-22T09:35:07;21.47;;;7.40;;
14276;SDS011;7222;57.346;12.150;2023-06-22T09:37:35;8.77;;;6.23;;
14276;SDS011;7222;57.346;12.150;2023-06-22T09:40:02;11.53;;;7.27;;
14276;SDS011;7222;57.346;12.150;2023-06-22T09:42:37;11.53;;;6.87;;
14276;SDS011;7222;57.346;12.150;2023-06-22T09:45:04;6.67;;;5.30;;
14276;SDS011;7222;57.346;12.150;2023-06-22T09:47:32;6.70;;;5.90;;
14276;SDS011;7222;57.346;12.150;2023-06-22T09:49:59;8.80;;;6.40;;
14276;SDS011;7222;57.346;12.150;2023-06-22T09:52:26;9.13;;;7.77;;
14276;SDS011;7222;57.346;12.150;2023-06-22T09:54:53;10.40;;;6.90;;
14276;SDS011;7222;57.346;12.150;2023-06-22T09:57:21;9.47;;;7.40;;
14276;SDS011;7222;57.346;12.150;2023-06-22T09:59:49;10.70;;;8.40;;
14276;SDS011;7222;57.346;12.150;2023-06-22T10:02:16;9.07;;;7.13;;
14276;SDS011;7222;57.346;12.150;2023-06-22T10:04:43;10.60;;;6.70;;
14276;SDS011;7222;57.346;12.150;2023-06-22T10:07:09;10.53;;;7.40;;
14276;SDS011;7222;57.346;12.150;2023-06-22T10:09:36;9.17;;;8.00;;
14276;SDS011;7222;57.346;12.150;2023-06-22T10:12:03;8.30;;;7.10;;
14276;SDS011;7222;57.346;12.150;2023-06-22T10:14:30;8.47;;;6.60;;
14276;SDS011;7222;57.346;12.150;2023-06-22T10:16:59;9.93;;;7.53;;
14276;SDS011;7222;57.346;12.150;2023-06-22T10:19:26;11.17;;;7.63;;
14276;SDS011;7222;57.346;12.150;2023-06-22T10:21:52;8.77;;;7.20;;
14276;SDS011;7222;57.346;12.150;2023-06-22T10:24:20;8.27;;;7.30;;
14276;SDS011;7222;57.346;12.150;2023-06-22T10:26:47;11.77;;;6.70;;
14276;SDS011;7222;57.346;12.150;2023-06-22T10:29:14;8.97;;;6.37;;
14276;SDS011;7222;57.346;12.150;2023-06-22T10:31:41;9.40;;;6.80;;
14276;SDS011;7222;57.346;12.150;2023-06-22T10:34:09;8.23;;;6.63;;
14276;SDS011;7222;57.346;12.150;2023-06-22T10:36:36;9.57;;;6.77;;
14276;SDS011;7222;57.346;12.150;2023-06-22T10:39:03;8.53;;;6.97;;
14276;SDS011;7222;57.346;12.150;2023-06-22T10:41:30;11.47;;;8.97;;
14276;SDS011;7222;57.346;12.150;2023-06-22T10:43:57;10.27;;;7.00;;
14276;SDS011;7222;57.346;12.150;2023-06-22T10:46:25;8.47;;;6.97;;
14276;SDS011;7222;57.346;12.150;2023-06-22T10:48:52;9.43;;;7.53;;
14276;SDS011;7222;57.346;12.150;2023-06-22T10:51:23;9.73;;;8.17;;
14276;SDS011;7222;57.346;12.150;2023-06-22T10:53:50;8.63;;;6.80;;
14276;SDS011;7222;57.346;12.150;2023-06-22T10:56:17;8.87;;;7.40;;
14276;SDS011;7222;57.346;12.150;2023-06-22T10:58:45;10.40;;;7.60;;
14276;SDS011;7222;57.346;12.150;2023-06-22T11:01:12;9.70;;;7.67;;
14276;SDS011;7222;57.346;12.150;2023-06-22T11:03:39;7.63;;;6.67;;
14276;SDS011;7222;57.346;12.150;2023-06-22T11:06:06;10.33;;;7.23;;
14276;SDS011;7222;57.346;12.150;2023-06-22T11:08:34;9.70;;;7.80;;
14276;SDS011;7222;57.346;12.150;2023-06-22T11:11:02;8.40;;;7.00;;
14276;SDS011;7222;57.346;12.150;2023-06-22T11:13:29;6.80;;;6.13;;
14276;SDS011;7222;57.346;12.150;2023-06-22T11:15:55;10.13;;;7.17;;
14276;SDS011;7222;57.346;12.150;2023-06-22T11:18:22;8.50;;;7.63;;
14276;SDS011;7222;57.346;12.150;2023-06-22T11:20:49;9.93;;;8.70;;
14276;SDS011;7222;57.346;12.150;2023-06-22T11:23:16;10.80;;;7.60;;
14276;SDS011;7222;57.346;12.150;2023-06-22T11:25:44;9.20;;;7.50;;
14276;SDS011;7222;57.346;12.150;2023-06-22T11:28:11;10.47;;;8.50;;
14276;SDS011;7222;57.346;12.150;2023-06-22T11:30:38;10.67;;;8.37;;
14276;SDS011;7222;57.346;12.150;2023-06-22T11:33:05;9.50;;;8.25;;
14276;SDS011;7222;57.346;12.150;2023-06-22T11:35:32;11.50;;;10.27;;
14276;SDS011;7222;57.346;12.150;2023-06-22T11:38:00;9.85;;;8.57;;
14276;SDS011;7222;57.346;12.150;2023-06-22T11:40:28;12.60;;;8.98;;
14276;SDS011;7222;57.346;12.150;2023-06-22T11:42:56;12.07;;;8.45;;
14276;SDS011;7222;57.346;12.150;2023-06-22T11:45:23;10.05;;;7.28;;
14276;SDS011;7222;57.346;12.150;2023-06-22T11:47:50;8.52;;;7.70;;
14276;SDS011;7222;57.346;12.150;2023-06-22T11:50:17;10.45;;;8.68;;
14276;SDS011;7222;57.346;12.150;2023-06-22T11:52:44;8.68;;;7.53;;
14276;SDS011;7222;57.346;12.150;2023-06-22T11:55:11;10.02;;;7.72;;
14276;SDS011;7222;57.346;12.150;2023-06-22T11:57:38;11.02;;;8.10;;
14276;SDS011;7222;57.346;12.150;2023-06-22T12:00:20;8.20;;;7.43;;
14276;SDS011;7222;57.346;12.150;2023-06-22T12:02:49;8.48;;;7.25;;
14276;SDS011;7222;57.346;12.150;2023-06-22T12:05:16;12.68;;;9.38;;
14276;SDS011;7222;57.346;12.150;2023-06-22T12:07:44;9.55;;;8.45;;
14276;SDS011;7222;57.346;12.150;2023-06-22T12:10:11;9.18;;;7.55;;
14276;SDS011;7222;57.346;12.150;2023-06-22T12:12:38;11.25;;;8.82;;
14276;SDS011;7222;57.346;12.150;2023-06-22T12:15:06;9.18;;;7.57;;
14276;SDS011;7222;57.346;12.150;2023-06-22T12:17:34;8.27;;;7.13;;
14276;SDS011;7222;57.346;12.150;2023-06-22T12:20:01;9.45;;;7.72;;
14276;SDS011;7222;57.346;12.150;2023-06-22T12:22:30;9.60;;;8.68;;
14276;SDS011;7222;57.346;12.150;2023-06-22T12:24:57;12.77;;;8.68;;
14276;SDS011;7222;57.346;12.150;2023-06-22T12:27:24;8.98;;;7.53;;
14276;SDS011;7222;57.346;12.150;2023-06-22T12:29:52;9.60;;;8.00;;
14276;SDS011;7222;57.346;12.150;2023-06-22T12:32:18;10.13;;;8.05;;
14276;SDS011;7222;57.346;12.150;2023-06-22T12:34:47;9.70;;;8.25;;
14276;SDS011;7222;57.346;12.150;2023-06-22T12:37:14;11.20;;;10.10;;
14276;SDS011;7222;57.346;12.150;2023-06-22T12:39:41;9.27;;;7.65;;
14276;SDS011;7222;57.346;12.150;2023-06-22T12:42:08;9.48;;;7.57;;
14276;SDS011;7222;57.346;12.150;2023-06-22T12:44:37;11.43;;;8.55;;
14276;SDS011;7222;57.346;12.150;2023-06-22T12:47:05;8.40;;;7.47;;
14276;SDS011;7222;57.346;12.150;2023-06-22T12:49:33;8.27;;;7.53;;
14276;SDS011;7222;57.346;12.150;2023-06-22T12:52:01;7.93;;;6.30;;
14276;SDS011;7222;57.346;12.150;2023-06-22T12:54:28;7.28;;;6.30;;
14276;SDS011;7222;57.346;12.150;2023-06-22T12:56:56;10.60;;;8.45;;
14276;SDS011;7222;57.346;12.150;2023-06-22T12:59:23;6.45;;;5.93;;
14276;SDS011;7222;57.346;12.150;2023-06-22T13:01:50;9.32;;;8.38;;
14276;SDS011;7222;57.346;12.150;2023-06-22T13:04:17;9.43;;;8.60;;
14276;SDS011;7222;57.346;12.150;2023-06-22T13:06:44;9.60;;;7.72;;
14276;SDS011;7222;57.346;12.150;2023-06-22T13:09:14;8.20;;;7.25;;
14276;SDS011;7222;57.346;12.150;2023-06-22T13:11:42;7.65;;;6.95;;
14276;SDS011;7222;57.346;12.150;2023-06-22T13:14:09;8.55;;;7.57;;
14276;SDS011;7222;57.346;12.150;2023-06-22T13:16:36;10.20;;;8.43;;
14276;SDS011;7222;57.346;12.150;2023-06-22T13:19:03;8.77;;;7.15;;
14276;SDS011;7222;57.346;12.150;2023-06-22T13:21:30;8.75;;;7.13;;
14276;SDS011;7222;57.346;12.150;2023-06-22T13:23:57;6.72;;;5.75;;
14276;SDS011;7222;57.346;12.150;2023-06-22T13:26:26;8.63;;;7.60;;
14276;SDS011;7222;57.346;12.150;2023-06-22T13:28:53;8.45;;;7.10;;
14276;SDS011;7222;57.346;12.150;2023-06-22T13:31:20;8.40;;;7.70;;
14276;SDS011;7222;57.346;12.150;2023-06-22T13:33:48;9.95;;;7.03;;
14276;SDS011;7222;57.346;12.150;2023-06-22T13:36:17;10.15;;;9.07;;
14276;SDS011;7222;57.346;12.150;2023-06-22T13:38:44;8.85;;;7.95;;
14276;SDS011;7222;57.346;12.150;2023-06-22T13:41:12;10.80;;;9.75;;
14276;SDS011;7222;57.346;12.150;2023-06-22T13:43:41;8.73;;;7.82;;
14276;SDS011;7222;57.346;12.150;2023-06-22T13:46:07;10.40;;;9.40;;
14276;SDS011;7222;57.346;12.150;2023-06-22T13:48:34;8.63;;;7.60;;
14276;SDS011;7222;57.346;12.150;2023-06-22T13:51:01;7.30;;;6.43;;
14276;SDS011;7222;57.346;12.150;2023-06-22T13:53:28;10.32;;;9.30;;
14276;SDS011;7222;57.346;12.150;2023-06-22T13:55:55;11.10;;;10.10;;
14276;SDS011;7222;57.346;12.150;2023-06-22T13:58:22;10.05;;;8.65;;
14276;SDS011;7222;57.346;12.150;2023-06-22T14:00:50;8.52;;;7.65;;
14276;SDS011;7222;57.346;12.150;2023-06-22T14:03:17;9.57;;;7.57;;
14276;SDS011;7222;57.346;12.150;2023-06-22T14:05:44;10.45;;;9.50;;
14276;SDS011;7222;57.346;12.150;2023-06-22T14:08:11;9.23;;;8.40;;
14276;SDS011;7222;57.346;12.150;2023-06-22T14:10:40;8.52;;;7.68;;
14276;SDS011;7222;57.346;12.150;2023-06-22T14:13:07;8.77;;;7.82;;
14276;SDS011;7222;57.346;12.150;2023-06-22T14:15:34;8.35;;;7.55;;
14276;SDS011;7222;57.346;12.150;2023-06-22T14:18:02;7.10;;;6.50;;
14276;SDS011;7222;57.346;12.150;2023-06-22T14:20:29;8.13;;;6.18;;
14276;SDS011;7222;57.346;12.150;2023-06-22T14:22:56;8.10;;;7.32;;
14276;SDS011;7222;57.346;12.150;2023-06-22T14:25:23;7.90;;;7.20;;
14276;SDS011;7222;57.346;12.150;2023-06-22T14:27:50;9.75;;;7.25;;
14276;SDS011;7222;57.346;12.150;2023-06-22T14:30:16;8.05;;;7.28;;
14276;SDS011;7222;57.346;12.150;2023-06-22T14:32:43;9.20;;;8.35;;
14276;SDS011;7222;57.346;12.150;2023-06-22T14:35:12;9.27;;;8.13;;
14276;SDS011;7222;57.346;12.150;2023-06-22T14:37:39;7.20;;;6.50;;
14276;SDS011;7222;57.346;12.150;2023-06-22T14:40:06;9.30;;;7.10;;
14276;SDS011;7222;57.346;12.150;2023-06-22T14:42:34;6.18;;;5.57;;
14276;SDS011;7222;57.346;12.150;2023-06-22T14:45:01;7.75;;;6.05;;
14276;SDS011;7222;57.346;12.150;2023-06-22T14:47:28;7.53;;;5.75;;